Terminal Aerodrome Forecast
Issued by NWS

Home | Current Version | Previous Version | Graphics & Text | Print | Product List | Glossary On
Versions: 1 2 3 4 5 6 7 8 9 10 11 12 13 14 15 16
532
FTUS43 KMPX 121739
TAFAXN
TAF
KAXN 121739Z 1218/1318 21008KT P6SM SCT015 BKN035
     FM122000 20008KT P6SM BKN035
     FM130000 19007KT P6SM SCT110
     FM130700 24007KT P6SM BKN100
     FM130900 30010KT P6SM VCSH OVC030
     FM131200 32018G27KT P6SM OVC010
     FM131500 33024G32KT P6SM OVC025=

USA.gov is the U.S. government's official web portal to all federal, state and local government web resources and services.